sensor_id;sensor_type;location;lat;lon;timestamp;P1;durP1;ratioP1;P2;durP2;ratioP2
77016;SDS011;65949;53.132;17.930;2022-12-11T00:01:31;16.30;;;6.80;;
77016;SDS011;65949;53.132;17.930;2022-12-11T00:03:58;16.40;;;4.60;;
77016;SDS011;65949;53.132;17.930;2022-12-11T00:06:24;14.90;;;4.90;;
77016;SDS011;65949;53.132;17.930;2022-12-11T00:08:52;19.70;;;5.80;;
77016;SDS011;65949;53.132;17.930;2022-12-11T00:11:20;13.60;;;4.50;;
77016;SDS011;65949;53.132;17.930;2022-12-11T00:13:47;10.30;;;3.20;;
77016;SDS011;65949;53.132;17.930;2022-12-11T00:16:14;10.90;;;3.10;;
77016;SDS011;65949;53.132;17.930;2022-12-11T00:18:41;10.90;;;3.70;;
77016;SDS011;65949;53.132;17.930;2022-12-11T00:21:10;12.10;;;3.40;;
77016;SDS011;65949;53.132;17.930;2022-12-11T00:23:39;11.00;;;4.00;;
77016;SDS011;65949;53.132;17.930;2022-12-11T00:26:06;10.70;;;3.00;;
77016;SDS011;65949;53.132;17.930;2022-12-11T00:28:35;16.80;;;4.70;;
77016;SDS011;65949;53.132;17.930;2022-12-11T00:31:03;11.90;;;3.90;;
77016;SDS011;65949;53.132;17.930;2022-12-11T00:33:31;10.80;;;2.90;;
77016;SDS011;65949;53.132;17.930;2022-12-11T00:35:58;7.60;;;2.20;;
77016;SDS011;65949;53.132;17.930;2022-12-11T00:38:25;10.40;;;3.10;;
77016;SDS011;65949;53.132;17.930;2022-12-11T00:40:56;9.40;;;2.90;;
77016;SDS011;65949;53.132;17.930;2022-12-11T00:43:24;7.20;;;2.10;;
77016;SDS011;65949;53.132;17.930;2022-12-11T00:45:51;6.10;;;1.50;;
77016;SDS011;65949;53.132;17.930;2022-12-11T00:48:18;6.90;;;1.80;;
77016;SDS011;65949;53.132;17.930;2022-12-11T00:50:45;4.80;;;1.40;;
77016;SDS011;65949;53.132;17.930;2022-12-11T00:53:12;5.30;;;1.50;;
77016;SDS011;65949;53.132;17.930;2022-12-11T00:55:39;9.00;;;2.50;;
77016;SDS011;65949;53.132;17.930;2022-12-11T00:58:07;10.90;;;3.00;;
77016;SDS011;65949;53.132;17.930;2022-12-11T01:00:35;9.70;;;2.60;;
77016;SDS011;65949;53.132;17.930;2022-12-11T01:03:02;9.10;;;2.90;;
77016;SDS011;65949;53.132;17.930;2022-12-11T01:05:29;10.90;;;2.60;;
77016;SDS011;65949;53.132;17.930;2022-12-11T01:07:56;9.00;;;2.90;;
77016;SDS011;65949;53.132;17.930;2022-12-11T01:10:25;9.10;;;3.20;;
77016;SDS011;65949;53.132;17.930;2022-12-11T01:12:53;11.10;;;3.80;;
77016;SDS011;65949;53.132;17.930;2022-12-11T01:15:21;9.30;;;2.80;;
77016;SDS011;65949;53.132;17.930;2022-12-11T01:17:50;10.20;;;3.30;;
77016;SDS011;65949;53.132;17.930;2022-12-11T01:20:18;8.80;;;3.10;;
77016;SDS011;65949;53.132;17.930;2022-12-11T01:22:46;11.00;;;3.40;;
77016;SDS011;65949;53.132;17.930;2022-12-11T01:25:13;9.20;;;3.40;;
77016;SDS011;65949;53.132;17.930;2022-12-11T01:27:40;9.40;;;2.80;;
77016;SDS011;65949;53.132;17.930;2022-12-11T01:30:07;9.70;;;3.70;;
77016;SDS011;65949;53.132;17.930;2022-12-11T01:32:34;10.80;;;3.50;;
77016;SDS011;65949;53.132;17.930;2022-12-11T01:35:05;16.60;;;5.40;;
77016;SDS011;65949;53.132;17.930;2022-12-11T01:37:33;10.00;;;3.10;;
77016;SDS011;65949;53.132;17.930;2022-12-11T01:40:00;10.80;;;3.30;;
77016;SDS011;65949;53.132;17.930;2022-12-11T01:42:27;10.40;;;3.40;;
77016;SDS011;65949;53.132;17.930;2022-12-11T01:48:20;10.00;;;3.20;;
77016;SDS011;65949;53.132;17.930;2022-12-11T01:50:51;11.50;;;4.20;;
77016;SDS011;65949;53.132;17.930;2022-12-11T01:53:27;11.00;;;3.90;;
77016;SDS011;65949;53.132;17.930;2022-12-11T01:55:58;9.90;;;2.80;;
77016;SDS011;65949;53.132;17.930;2022-12-11T01:58:28;9.30;;;2.90;;
77016;SDS011;65949;53.132;17.930;2022-12-11T02:00:59;7.80;;;2.60;;
77016;SDS011;65949;53.132;17.930;2022-12-11T02:03:27;15.40;;;4.60;;
77016;SDS011;65949;53.132;17.930;2022-12-11T02:05:53;13.30;;;4.20;;
77016;SDS011;65949;53.132;17.930;2022-12-11T02:08:24;13.30;;;4.80;;
77016;SDS011;65949;53.132;17.930;2022-12-11T02:13:22;13.80;;;4.30;;
77016;SDS011;65949;53.132;17.930;2022-12-11T02:15:59;11.30;;;3.70;;
77016;SDS011;65949;53.132;17.930;2022-12-11T02:18:41;11.70;;;3.80;;
77016;SDS011;65949;53.132;17.930;2022-12-11T02:26:53;7.90;;;1.90;;
77016;SDS011;65949;53.132;17.930;2022-12-11T02:32:45;11.40;;;4.10;;
77016;SDS011;65949;53.132;17.930;2022-12-11T02:37:56;10.00;;;3.50;;
77016;SDS011;65949;53.132;17.930;2022-12-11T02:40:29;12.40;;;3.60;;
77016;SDS011;65949;53.132;17.930;2022-12-11T02:43:00;11.50;;;4.10;;
77016;SDS011;65949;53.132;17.930;2022-12-11T02:45:31;11.50;;;4.20;;
77016;SDS011;65949;53.132;17.930;2022-12-11T02:48:00;13.20;;;5.00;;
77016;SDS011;65949;53.132;17.930;2022-12-11T02:50:31;14.80;;;5.60;;
77016;SDS011;65949;53.132;17.930;2022-12-11T02:53:01;11.10;;;3.70;;
77016;SDS011;65949;53.132;17.930;2022-12-11T02:55:30;13.40;;;4.10;;
77016;SDS011;65949;53.132;17.930;2022-12-11T03:00:42;11.60;;;4.30;;
77016;SDS011;65949;53.132;17.930;2022-12-11T03:03:10;10.30;;;4.00;;
77016;SDS011;65949;53.132;17.930;2022-12-11T03:05:38;13.00;;;4.30;;
77016;SDS011;65949;53.132;17.930;2022-12-11T03:08:06;13.70;;;5.20;;
77016;SDS011;65949;53.132;17.930;2022-12-11T03:10:33;13.00;;;4.10;;
77016;SDS011;65949;53.132;17.930;2022-12-11T03:12:59;16.50;;;5.60;;
77016;SDS011;65949;53.132;17.930;2022-12-11T03:15:33;10.70;;;4.00;;
77016;SDS011;65949;53.132;17.930;2022-12-11T03:21:18;8.80;;;2.80;;
77016;SDS011;65949;53.132;17.930;2022-12-11T03:24:19;11.60;;;4.40;;
77016;SDS011;65949;53.132;17.930;2022-12-11T03:26:54;13.10;;;5.10;;
77016;SDS011;65949;53.132;17.930;2022-12-11T03:29:40;10.70;;;2.90;;
77016;SDS011;65949;53.132;17.930;2022-12-11T03:32:22;10.90;;;3.80;;
77016;SDS011;65949;53.132;17.930;2022-12-11T03:34:58;13.50;;;4.80;;
77016;SDS011;65949;53.132;17.930;2022-12-11T03:37:33;13.20;;;4.90;;
77016;SDS011;65949;53.132;17.930;2022-12-11T03:40:05;14.20;;;5.70;;
77016;SDS011;65949;53.132;17.930;2022-12-11T03:42:36;10.60;;;4.00;;
77016;SDS011;65949;53.132;17.930;2022-12-11T03:45:06;17.50;;;5.90;;
77016;SDS011;65949;53.132;17.930;2022-12-11T03:47:34;12.50;;;3.80;;
77016;SDS011;65949;53.132;17.930;2022-12-11T03:50:03;8.60;;;3.20;;
77016;SDS011;65949;53.132;17.930;2022-12-11T03:52:33;10.80;;;4.20;;
77016;SDS011;65949;53.132;17.930;2022-12-11T03:55:02;17.20;;;6.80;;
77016;SDS011;65949;53.132;17.930;2022-12-11T03:57:31;10.10;;;3.80;;
77016;SDS011;65949;53.132;17.930;2022-12-11T04:00:00;22.40;;;7.10;;
77016;SDS011;65949;53.132;17.930;2022-12-11T04:02:38;15.90;;;5.10;;
77016;SDS011;65949;53.132;17.930;2022-12-11T04:05:06;10.90;;;3.90;;
77016;SDS011;65949;53.132;17.930;2022-12-11T04:07:33;17.70;;;6.30;;
77016;SDS011;65949;53.132;17.930;2022-12-11T04:10:00;28.20;;;10.10;;
77016;SDS011;65949;53.132;17.930;2022-12-11T04:12:27;21.20;;;7.80;;
77016;SDS011;65949;53.132;17.930;2022-12-11T04:14:54;11.90;;;4.30;;
77016;SDS011;65949;53.132;17.930;2022-12-11T04:17:31;15.10;;;4.90;;
77016;SDS011;65949;53.132;17.930;2022-12-11T04:20:18;19.20;;;6.90;;
77016;SDS011;65949;53.132;17.930;2022-12-11T04:23:10;19.00;;;6.50;;
77016;SDS011;65949;53.132;17.930;2022-12-11T04:26:03;13.20;;;4.70;;
77016;SDS011;65949;53.132;17.930;2022-12-11T04:28:30;11.80;;;3.60;;
77016;SDS011;65949;53.132;17.930;2022-12-11T04:30:57;12.20;;;3.30;;
77016;SDS011;65949;53.132;17.930;2022-12-11T04:33:24;15.00;;;4.10;;
77016;SDS011;65949;53.132;17.930;2022-12-11T04:35:50;12.40;;;4.00;;
77016;SDS011;65949;53.132;17.930;2022-12-11T04:38:17;6.80;;;1.80;;
77016;SDS011;65949;53.132;17.930;2022-12-11T04:40:44;8.50;;;2.90;;
77016;SDS011;65949;53.132;17.930;2022-12-11T04:43:10;6.40;;;2.10;;
77016;SDS011;65949;53.132;17.930;2022-12-11T04:45:37;10.50;;;3.70;;
77016;SDS011;65949;53.132;17.930;2022-12-11T04:48:04;11.60;;;3.50;;
77016;SDS011;65949;53.132;17.930;2022-12-11T04:50:31;11.10;;;3.90;;
77016;SDS011;65949;53.132;17.930;2022-12-11T04:52:57;12.00;;;4.00;;
77016;SDS011;65949;53.132;17.930;2022-12-11T04:55:24;11.10;;;3.60;;
77016;SDS011;65949;53.132;17.930;2022-12-11T04:57:51;7.80;;;2.10;;
77016;SDS011;65949;53.132;17.930;2022-12-11T05:00:17;13.60;;;4.80;;
77016;SDS011;65949;53.132;17.930;2022-12-11T05:02:44;14.00;;;4.60;;
77016;SDS011;65949;53.132;17.930;2022-12-11T05:05:11;10.00;;;3.40;;
77016;SDS011;65949;53.132;17.930;2022-12-11T05:07:38;17.30;;;5.10;;
77016;SDS011;65949;53.132;17.930;2022-12-11T05:10:05;10.90;;;3.20;;
77016;SDS011;65949;53.132;17.930;2022-12-11T05:12:32;11.20;;;3.60;;
77016;SDS011;65949;53.132;17.930;2022-12-11T05:14:59;11.10;;;3.60;;
77016;SDS011;65949;53.132;17.930;2022-12-11T05:17:26;10.10;;;3.50;;
77016;SDS011;65949;53.132;17.930;2022-12-11T05:19:52;13.50;;;4.20;;
77016;SDS011;65949;53.132;17.930;2022-12-11T05:22:19;10.70;;;3.30;;
77016;SDS011;65949;53.132;17.930;2022-12-11T05:24:46;10.70;;;4.10;;
77016;SDS011;65949;53.132;17.930;2022-12-11T05:27:12;10.20;;;3.20;;
77016;SDS011;65949;53.132;17.930;2022-12-11T05:29:39;13.10;;;4.30;;
77016;SDS011;65949;53.132;17.930;2022-12-11T05:32:06;13.80;;;5.50;;
77016;SDS011;65949;53.132;17.930;2022-12-11T05:34:33;12.40;;;4.00;;
77016;SDS011;65949;53.132;17.930;2022-12-11T05:37:00;8.00;;;2.90;;
77016;SDS011;65949;53.132;17.930;2022-12-11T05:39:27;9.50;;;3.00;;
77016;SDS011;65949;53.132;17.930;2022-12-11T05:41:53;13.40;;;4.00;;
77016;SDS011;65949;53.132;17.930;2022-12-11T05:44:20;11.40;;;3.70;;
77016;SDS011;65949;53.132;17.930;2022-12-11T05:46:47;10.60;;;3.30;;
77016;SDS011;65949;53.132;17.930;2022-12-11T05:49:15;9.70;;;2.80;;
77016;SDS011;65949;53.132;17.930;2022-12-11T05:51:41;15.30;;;5.90;;
77016;SDS011;65949;53.132;17.930;2022-12-11T05:54:09;14.20;;;4.00;;
77016;SDS011;65949;53.132;17.930;2022-12-11T05:56:36;12.90;;;4.80;;
77016;SDS011;65949;53.132;17.930;2022-12-11T05:59:03;10.80;;;4.00;;
77016;SDS011;65949;53.132;17.930;2022-12-11T06:01:41;7.20;;;2.30;;
77016;SDS011;65949;53.132;17.930;2022-12-11T06:04:09;7.50;;;2.40;;
77016;SDS011;65949;53.132;17.930;2022-12-11T06:06:37;12.20;;;3.90;;
77016;SDS011;65949;53.132;17.930;2022-12-11T06:09:06;12.30;;;4.10;;
77016;SDS011;65949;53.132;17.930;2022-12-11T06:11:33;12.00;;;4.00;;
77016;SDS011;65949;53.132;17.930;2022-12-11T06:14:01;6.80;;;2.30;;
77016;SDS011;65949;53.132;17.930;2022-12-11T06:16:29;12.40;;;4.80;;
77016;SDS011;65949;53.132;17.930;2022-12-11T06:18:55;8.20;;;2.50;;
77016;SDS011;65949;53.132;17.930;2022-12-11T06:21:24;12.60;;;4.30;;
77016;SDS011;65949;53.132;17.930;2022-12-11T06:23:53;9.30;;;3.00;;
77016;SDS011;65949;53.132;17.930;2022-12-11T06:26:22;11.40;;;4.40;;
77016;SDS011;65949;53.132;17.930;2022-12-11T06:28:49;15.70;;;6.50;;
77016;SDS011;65949;53.132;17.930;2022-12-11T06:31:17;15.60;;;5.50;;
77016;SDS011;65949;53.132;17.930;2022-12-11T06:33:44;14.60;;;3.30;;
77016;SDS011;65949;53.132;17.930;2022-12-11T06:36:13;7.80;;;2.70;;
77016;SDS011;65949;53.132;17.930;2022-12-11T06:38:41;14.20;;;5.10;;
77016;SDS011;65949;53.132;17.930;2022-12-11T06:41:09;7.30;;;2.90;;
77016;SDS011;65949;53.132;17.930;2022-12-11T06:43:37;10.10;;;3.40;;
77016;SDS011;65949;53.132;17.930;2022-12-11T06:46:06;11.80;;;4.70;;
77016;SDS011;65949;53.132;17.930;2022-12-11T06:48:37;12.50;;;3.80;;
77016;SDS011;65949;53.132;17.930;2022-12-11T06:51:06;11.20;;;3.40;;
77016;SDS011;65949;53.132;17.930;2022-12-11T06:53:34;12.90;;;4.70;;
77016;SDS011;65949;53.132;17.930;2022-12-11T06:56:02;9.70;;;3.40;;
77016;SDS011;65949;53.132;17.930;2022-12-11T06:58:30;9.70;;;3.90;;
77016;SDS011;65949;53.132;17.930;2022-12-11T07:00:59;13.90;;;4.80;;
77016;SDS011;65949;53.132;17.930;2022-12-11T07:03:27;13.50;;;4.70;;
77016;SDS011;65949;53.132;17.930;2022-12-11T07:05:58;18.70;;;6.00;;
77016;SDS011;65949;53.132;17.930;2022-12-11T07:08:28;11.70;;;3.50;;
77016;SDS011;65949;53.132;17.930;2022-12-11T07:11:00;12.70;;;4.50;;
77016;SDS011;65949;53.132;17.930;2022-12-11T07:13:31;16.00;;;5.30;;
77016;SDS011;65949;53.132;17.930;2022-12-11T07:15:59;15.40;;;5.70;;
77016;SDS011;65949;53.132;17.930;2022-12-11T07:18:27;16.00;;;5.80;;
77016;SDS011;65949;53.132;17.930;2022-12-11T07:20:56;15.70;;;5.50;;
77016;SDS011;65949;53.132;17.930;2022-12-11T07:23:24;10.60;;;3.90;;
77016;SDS011;65949;53.132;17.930;2022-12-11T07:25:53;15.20;;;6.10;;
77016;SDS011;65949;53.132;17.930;2022-12-11T07:28:21;19.20;;;6.30;;
77016;SDS011;65949;53.132;17.930;2022-12-11T07:30:48;16.20;;;5.20;;
77016;SDS011;65949;53.132;17.930;2022-12-11T07:33:15;23.30;;;8.40;;
77016;SDS011;65949;53.132;17.930;2022-12-11T07:35:42;20.80;;;7.20;;
77016;SDS011;65949;53.132;17.930;2022-12-11T07:38:09;16.20;;;5.90;;
77016;SDS011;65949;53.132;17.930;2022-12-11T07:40:35;19.70;;;7.40;;
77016;SDS011;65949;53.132;17.930;2022-12-11T07:43:02;14.90;;;5.50;;
77016;SDS011;65949;53.132;17.930;2022-12-11T07:45:29;24.10;;;7.70;;
77016;SDS011;65949;53.132;17.930;2022-12-11T07:47:56;14.20;;;5.50;;
77016;SDS011;65949;53.132;17.930;2022-12-11T07:50:22;14.70;;;5.80;;
77016;SDS011;65949;53.132;17.930;2022-12-11T07:52:49;14.60;;;5.50;;
77016;SDS011;65949;53.132;17.930;2022-12-11T07:55:15;11.80;;;3.80;;
77016;SDS011;65949;53.132;17.930;2022-12-11T07:57:42;11.00;;;4.10;;
77016;SDS011;65949;53.132;17.930;2022-12-11T08:00:09;13.00;;;5.00;;
77016;SDS011;65949;53.132;17.930;2022-12-11T08:02:41;15.80;;;5.40;;
77016;SDS011;65949;53.132;17.930;2022-12-11T08:05:07;10.70;;;3.20;;
77016;SDS011;65949;53.132;17.930;2022-12-11T08:07:34;10.80;;;3.10;;
77016;SDS011;65949;53.132;17.930;2022-12-11T08:10:02;8.00;;;3.10;;
77016;SDS011;65949;53.132;17.930;2022-12-11T08:12:30;10.30;;;3.60;;
77016;SDS011;65949;53.132;17.930;2022-12-11T08:14:56;11.80;;;3.90;;
77016;SDS011;65949;53.132;17.930;2022-12-11T08:17:23;12.80;;;3.20;;
77016;SDS011;65949;53.132;17.930;2022-12-11T08:19:50;9.40;;;3.30;;
77016;SDS011;65949;53.132;17.930;2022-12-11T08:22:16;7.30;;;2.50;;
77016;SDS011;65949;53.132;17.930;2022-12-11T08:24:43;11.80;;;4.60;;
77016;SDS011;65949;53.132;17.930;2022-12-11T08:27:10;14.00;;;5.10;;
77016;SDS011;65949;53.132;17.930;2022-12-11T08:29:37;10.80;;;4.00;;
77016;SDS011;65949;53.132;17.930;2022-12-11T08:32:04;12.00;;;4.50;;
77016;SDS011;65949;53.132;17.930;2022-12-11T08:34:30;12.00;;;3.30;;
77016;SDS011;65949;53.132;17.930;2022-12-11T08:36:57;13.70;;;5.50;;
77016;SDS011;65949;53.132;17.930;2022-12-11T08:39:24;11.10;;;3.80;;
77016;SDS011;65949;53.132;17.930;2022-12-11T08:41:51;7.60;;;3.00;;
77016;SDS011;65949;53.132;17.930;2022-12-11T08:44:18;15.10;;;5.30;;
77016;SDS011;65949;53.132;17.930;2022-12-11T08:46:45;13.90;;;5.50;;
77016;SDS011;65949;53.132;17.930;2022-12-11T08:49:12;14.00;;;4.80;;
77016;SDS011;65949;53.132;17.930;2022-12-11T08:51:38;10.70;;;3.60;;
77016;SDS011;65949;53.132;17.930;2022-12-11T08:54:05;16.70;;;6.20;;
77016;SDS011;65949;53.132;17.930;2022-12-11T08:56:32;12.50;;;4.90;;
77016;SDS011;65949;53.132;17.930;2022-12-11T08:58:59;18.70;;;6.20;;
77016;SDS011;65949;53.132;17.930;2022-12-11T09:01:27;102.00;;;26.80;;
77016;SDS011;65949;53.132;17.930;2022-12-11T09:03:55;24.50;;;8.40;;
77016;SDS011;65949;53.132;17.930;2022-12-11T09:06:23;9.70;;;3.30;;
77016;SDS011;65949;53.132;17.930;2022-12-11T09:08:51;16.50;;;4.60;;
77016;SDS011;65949;53.132;17.930;2022-12-11T09:11:21;13.70;;;5.30;;
77016;SDS011;65949;53.132;17.930;2022-12-11T09:13:49;21.60;;;7.40;;
77016;SDS011;65949;53.132;17.930;2022-12-11T09:16:17;12.40;;;3.50;;
77016;SDS011;65949;53.132;17.930;2022-12-11T09:18:47;7.90;;;3.40;;
77016;SDS011;65949;53.132;17.930;2022-12-11T09:21:17;9.90;;;3.20;;
77016;SDS011;65949;53.132;17.930;2022-12-11T09:23:46;10.60;;;4.00;;
77016;SDS011;65949;53.132;17.930;2022-12-11T09:26:15;7.20;;;2.10;;
77016;SDS011;65949;53.132;17.930;2022-12-11T09:28:45;10.80;;;3.10;;
77016;SDS011;65949;53.132;17.930;2022-12-11T09:31:13;15.00;;;4.80;;
77016;SDS011;65949;53.132;17.930;2022-12-11T09:33:42;14.60;;;5.90;;
77016;SDS011;65949;53.132;17.930;2022-12-11T09:36:09;8.50;;;2.30;;
77016;SDS011;65949;53.132;17.930;2022-12-11T09:38:37;9.00;;;2.90;;
77016;SDS011;65949;53.132;17.930;2022-12-11T09:46:35;11.70;;;3.70;;
77016;SDS011;65949;53.132;17.930;2022-12-11T09:49:04;8.70;;;2.70;;
77016;SDS011;65949;53.132;17.930;2022-12-11T09:54:49;7.00;;;1.90;;
77016;SDS011;65949;53.132;17.930;2022-12-11T09:57:38;6.90;;;1.90;;
77016;SDS011;65949;53.132;17.930;2022-12-11T10:00:38;9.70;;;3.00;;
77016;SDS011;65949;53.132;17.930;2022-12-11T10:03:10;9.20;;;2.30;;
77016;SDS011;65949;53.132;17.930;2022-12-11T10:05:47;10.90;;;3.00;;
77016;SDS011;65949;53.132;17.930;2022-12-11T10:14:07;9.90;;;3.40;;
77016;SDS011;65949;53.132;17.930;2022-12-11T10:16:47;11.30;;;3.40;;
77016;SDS011;65949;53.132;17.930;2022-12-11T10:21:48;12.00;;;3.50;;
77016;SDS011;65949;53.132;17.930;2022-12-11T10:24:22;12.60;;;4.50;;
77016;SDS011;65949;53.132;17.930;2022-12-11T10:26:55;12.10;;;4.50;;
77016;SDS011;65949;53.132;17.930;2022-12-11T10:29:24;17.20;;;6.20;;
77016;SDS011;65949;53.132;17.930;2022-12-11T10:31:52;14.30;;;4.50;;
77016;SDS011;65949;53.132;17.930;2022-12-11T10:34:28;8.10;;;2.20;;
77016;SDS011;65949;53.132;17.930;2022-12-11T10:37:00;9.00;;;2.40;;
77016;SDS011;65949;53.132;17.930;2022-12-11T10:39:27;8.20;;;2.40;;
77016;SDS011;65949;53.132;17.930;2022-12-11T10:41:54;9.80;;;2.30;;
77016;SDS011;65949;53.132;17.930;2022-12-11T10:44:26;12.70;;;3.40;;
77016;SDS011;65949;53.132;17.930;2022-12-11T10:47:03;12.10;;;3.50;;
77016;SDS011;65949;53.132;17.930;2022-12-11T10:49:33;9.90;;;3.10;;
77016;SDS011;65949;53.132;17.930;2022-12-11T10:52:00;10.30;;;3.00;;
77016;SDS011;65949;53.132;17.930;2022-12-11T10:54:42;11.30;;;3.70;;
77016;SDS011;65949;53.132;17.930;2022-12-11T10:57:12;12.10;;;3.90;;
77016;SDS011;65949;53.132;17.930;2022-12-11T10:59:47;8.70;;;2.50;;
77016;SDS011;65949;53.132;17.930;2022-12-11T11:02:25;10.60;;;2.80;;
77016;SDS011;65949;53.132;17.930;2022-12-11T11:04:55;9.10;;;3.50;;
77016;SDS011;65949;53.132;17.930;2022-12-11T11:07:25;7.40;;;2.20;;
77016;SDS011;65949;53.132;17.930;2022-12-11T11:15:23;11.40;;;4.20;;
77016;SDS011;65949;53.132;17.930;2022-12-11T11:17:53;10.70;;;2.60;;
77016;SDS011;65949;53.132;17.930;2022-12-11T11:20:28;7.70;;;2.40;;
77016;SDS011;65949;53.132;17.930;2022-12-11T11:22:58;6.90;;;1.90;;
77016;SDS011;65949;53.132;17.930;2022-12-11T11:25:27;9.70;;;3.10;;
77016;SDS011;65949;53.132;17.930;2022-12-11T11:33:00;12.60;;;4.10;;
77016;SDS011;65949;53.132;17.930;2022-12-11T11:35:30;9.30;;;2.40;;
77016;SDS011;65949;53.132;17.930;2022-12-11T11:49:04;7.90;;;2.70;;
77016;SDS011;65949;53.132;17.930;2022-12-11T11:51:40;9.10;;;3.00;;
77016;SDS011;65949;53.132;17.930;2022-12-11T11:54:55;8.90;;;3.10;;
77016;SDS011;65949;53.132;17.930;2022-12-11T11:57:14;11.30;;;3.20;;
77016;SDS011;65949;53.132;17.930;2022-12-11T11:59:48;7.20;;;2.40;;
77016;SDS011;65949;53.132;17.930;2022-12-11T12:02:20;12.80;;;5.00;;
77016;SDS011;65949;53.132;17.930;2022-12-11T12:04:47;9.50;;;2.70;;
77016;SDS011;65949;53.132;17.930;2022-12-11T12:18:07;9.20;;;3.30;;
77016;SDS011;65949;53.132;17.930;2022-12-11T12:20:57;9.90;;;3.30;;
77016;SDS011;65949;53.132;17.930;2022-12-11T12:30:01;9.80;;;3.30;;
77016;SDS011;65949;53.132;17.930;2022-12-11T12:35:34;8.40;;;2.30;;
77016;SDS011;65949;53.132;17.930;2022-12-11T12:38:08;11.00;;;3.80;;
77016;SDS011;65949;53.132;17.930;2022-12-11T12:41:02;12.90;;;3.90;;
77016;SDS011;65949;53.132;17.930;2022-12-11T12:43:51;8.50;;;2.60;;
77016;SDS011;65949;53.132;17.930;2022-12-11T12:46:30;8.40;;;3.10;;
77016;SDS011;65949;53.132;17.930;2022-12-11T12:49:15;13.80;;;4.30;;
77016;SDS011;65949;53.132;17.930;2022-12-11T12:51:49;15.40;;;5.40;;
77016;SDS011;65949;53.132;17.930;2022-12-11T12:54:17;14.00;;;5.40;;
77016;SDS011;65949;53.132;17.930;2022-12-11T12:56:46;15.20;;;5.70;;
77016;SDS011;65949;53.132;17.930;2022-12-11T12:59:32;13.00;;;4.80;;
77016;SDS011;65949;53.132;17.930;2022-12-11T13:01:59;10.90;;;3.70;;
77016;SDS011;65949;53.132;17.930;2022-12-11T13:04:39;15.10;;;4.60;;
77016;SDS011;65949;53.132;17.930;2022-12-11T13:07:12;12.10;;;4.20;;
77016;SDS011;65949;53.132;17.930;2022-12-11T13:09:54;9.70;;;2.90;;
77016;SDS011;65949;53.132;17.930;2022-12-11T13:12:38;6.00;;;2.00;;
77016;SDS011;65949;53.132;17.930;2022-12-11T13:15:28;9.40;;;2.10;;
77016;SDS011;65949;53.132;17.930;2022-12-11T13:17:58;10.50;;;3.20;;
77016;SDS011;65949;53.132;17.930;2022-12-11T13:20:27;7.90;;;2.60;;
77016;SDS011;65949;53.132;17.930;2022-12-11T13:23:08;7.50;;;2.10;;
77016;SDS011;65949;53.132;17.930;2022-12-11T13:25:49;26.30;;;8.40;;
77016;SDS011;65949;53.132;17.930;2022-12-11T13:28:23;8.00;;;3.00;;
77016;SDS011;65949;53.132;17.930;2022-12-11T13:31:00;14.50;;;4.20;;
77016;SDS011;65949;53.132;17.930;2022-12-11T13:33:30;11.40;;;3.30;;
77016;SDS011;65949;53.132;17.930;2022-12-11T13:36:11;8.90;;;3.10;;
77016;SDS011;65949;53.132;17.930;2022-12-11T13:38:46;7.30;;;2.70;;
77016;SDS011;65949;53.132;17.930;2022-12-11T13:41:16;16.20;;;4.90;;
77016;SDS011;65949;53.132;17.930;2022-12-11T13:43:46;15.00;;;5.40;;
77016;SDS011;65949;53.132;17.930;2022-12-11T13:46:18;11.40;;;4.00;;
77016;SDS011;65949;53.132;17.930;2022-12-11T13:48:52;7.00;;;2.30;;
77016;SDS011;65949;53.132;17.930;2022-12-11T13:51:28;13.70;;;4.10;;
77016;SDS011;65949;53.132;17.930;2022-12-11T13:57:11;9.50;;;3.00;;
77016;SDS011;65949;53.132;17.930;2022-12-11T13:59:45;15.40;;;4.30;;
77016;SDS011;65949;53.132;17.930;2022-12-11T14:04:56;16.00;;;4.50;;
77016;SDS011;65949;53.132;17.930;2022-12-11T14:07:30;10.90;;;4.20;;
77016;SDS011;65949;53.132;17.930;2022-12-11T14:10:21;9.80;;;3.20;;
77016;SDS011;65949;53.132;17.930;2022-12-11T14:12:55;10.30;;;4.00;;
77016;SDS011;65949;53.132;17.930;2022-12-11T14:15:26;11.60;;;3.20;;
77016;SDS011;65949;53.132;17.930;2022-12-11T14:17:55;14.20;;;4.20;;
77016;SDS011;65949;53.132;17.930;2022-12-11T14:20:26;13.80;;;2.90;;
77016;SDS011;65949;53.132;17.930;2022-12-11T14:25:59;13.30;;;2.60;;
77016;SDS011;65949;53.132;17.930;2022-12-11T14:28:28;27.90;;;6.50;;
77016;SDS011;65949;53.132;17.930;2022-12-11T14:31:02;21.00;;;7.30;;
77016;SDS011;65949;53.132;17.930;2022-12-11T14:33:31;24.00;;;11.10;;
77016;SDS011;65949;53.132;17.930;2022-12-11T14:36:06;30.00;;;12.50;;
77016;SDS011;65949;53.132;17.930;2022-12-11T14:38:34;36.80;;;16.90;;
77016;SDS011;65949;53.132;17.930;2022-12-11T14:41:05;31.60;;;11.10;;
77016;SDS011;65949;53.132;17.930;2022-12-11T14:43:43;57.10;;;12.40;;
77016;SDS011;65949;53.132;17.930;2022-12-11T14:46:17;89.40;;;18.90;;
77016;SDS011;65949;53.132;17.930;2022-12-11T14:48:53;45.00;;;16.00;;
77016;SDS011;65949;53.132;17.930;2022-12-11T14:51:32;34.50;;;12.50;;
77016;SDS011;65949;53.132;17.930;2022-12-11T14:54:04;41.70;;;13.00;;
77016;SDS011;65949;53.132;17.930;2022-12-11T14:56:33;34.10;;;9.60;;
77016;SDS011;65949;53.132;17.930;2022-12-11T14:59:14;46.10;;;11.70;;
77016;SDS011;65949;53.132;17.930;2022-12-11T15:01:58;50.00;;;13.40;;
77016;SDS011;65949;53.132;17.930;2022-12-11T15:04:27;31.20;;;7.20;;
77016;SDS011;65949;53.132;17.930;2022-12-11T15:06:56;32.90;;;10.70;;
77016;SDS011;65949;53.132;17.930;2022-12-11T15:12:11;28.40;;;9.90;;
77016;SDS011;65949;53.132;17.930;2022-12-11T15:14:51;31.30;;;10.00;;
77016;SDS011;65949;53.132;17.930;2022-12-11T15:17:22;33.20;;;8.30;;
77016;SDS011;65949;53.132;17.930;2022-12-11T15:19:51;20.30;;;5.60;;
77016;SDS011;65949;53.132;17.930;2022-12-11T15:22:21;19.90;;;5.90;;
77016;SDS011;65949;53.132;17.930;2022-12-11T15:24:52;23.10;;;8.20;;
77016;SDS011;65949;53.132;17.930;2022-12-11T15:27:31;20.30;;;7.00;;
77016;SDS011;65949;53.132;17.930;2022-12-11T15:35:37;19.90;;;7.40;;
77016;SDS011;65949;53.132;17.930;2022-12-11T15:38:05;22.30;;;7.60;;
77016;SDS011;65949;53.132;17.930;2022-12-11T15:40:50;19.30;;;7.40;;
77016;SDS011;65949;53.132;17.930;2022-12-11T15:43:17;19.20;;;5.80;;
77016;SDS011;65949;53.132;17.930;2022-12-11T15:45:43;20.70;;;6.30;;
77016;SDS011;65949;53.132;17.930;2022-12-11T15:48:10;36.50;;;8.80;;
77016;SDS011;65949;53.132;17.930;2022-12-11T15:50:37;27.10;;;8.20;;
77016;SDS011;65949;53.132;17.930;2022-12-11T15:53:05;45.00;;;13.50;;
77016;SDS011;65949;53.132;17.930;2022-12-11T15:55:31;50.00;;;16.40;;
77016;SDS011;65949;53.132;17.930;2022-12-11T15:58:00;36.10;;;12.00;;
77016;SDS011;65949;53.132;17.930;2022-12-11T16:00:30;27.20;;;9.40;;
77016;SDS011;65949;53.132;17.930;2022-12-11T16:02:57;28.10;;;9.20;;
77016;SDS011;65949;53.132;17.930;2022-12-11T16:05:25;37.50;;;11.50;;
77016;SDS011;65949;53.132;17.930;2022-12-11T16:07:52;24.40;;;8.50;;
77016;SDS011;65949;53.132;17.930;2022-12-11T16:10:20;42.10;;;11.50;;
77016;SDS011;65949;53.132;17.930;2022-12-11T16:12:47;25.50;;;8.40;;
77016;SDS011;65949;53.132;17.930;2022-12-11T16:15:14;45.00;;;15.50;;
77016;SDS011;65949;53.132;17.930;2022-12-11T16:17:41;37.00;;;12.10;;
77016;SDS011;65949;53.132;17.930;2022-12-11T16:20:08;39.70;;;11.90;;
77016;SDS011;65949;53.132;17.930;2022-12-11T16:22:36;44.10;;;12.20;;